Time;durP1;ratioP1;P1;durP2;ratioP2;P2;SDS_P1;SDS_P2;PMS_P1;PMS_P2;Temp;Humidity;BMP_temperature;BMP_pressure;BME280_temperature;BME280_humidity;BME280_pressure;Samples;Min_cycle;Max_cycle;Signal;HPM_P1;HPM_P2
2022/04/28 00:02:11;;;;;;;9.60;8.00;;;;;;;7.02;84.73;96347.03;4989201;28;20177;-79
2022/04/28 00:04:36;;;;;;;9.73;8.53;;;;;;;6.93;85.05;96345.09;4973535;28;20672;-79
2022/04/28 00:07:02;;;;;;;9.20;8.20;;;;;;;6.88;85.37;96342.81;4989695;28;20248;-79
2022/04/28 00:09:27;;;;;;;10.93;8.20;;;;;;;6.83;85.30;96342.31;5005432;28;20203;-79
2022/04/28 00:11:53;;;;;;;11.43;9.43;;;;;;;6.76;85.61;96341.09;4988195;28;20188;-80
2022/04/28 00:14:18;;;;;;;10.37;9.37;;;;;;;6.68;86.24;96348.53;5001217;28;20268;-80
2022/04/28 00:16:44;;;;;;;11.17;9.00;;;;;;;6.66;86.86;96346.06;4973133;28;20188;-79
2022/04/28 00:19:09;;;;;;;9.77;8.77;;;;;;;6.67;86.64;96344.28;4957159;28;20219;-78
2022/04/28 00:21:35;;;;;;;9.90;8.90;;;;;;;6.60;86.98;96350.78;4989227;28;20195;-78
2022/04/28 00:24:00;;;;;;;10.83;9.13;;;;;;;6.53;87.40;96345.22;4998853;28;20172;-77
2022/04/28 00:26:25;;;;;;;9.73;8.73;;;;;;;6.46;87.48;96351.75;4996308;28;20247;-77
2022/04/28 00:28:50;;;;;;;11.67;9.50;;;;;;;6.39;88.21;96348.72;4996126;28;20259;-77
2022/04/28 00:31:16;;;;;;;9.90;8.90;;;;;;;6.34;88.26;96348.19;4968856;29;20272;-79
2022/04/28 00:33:41;;;;;;;10.13;9.13;;;;;;;6.30;88.47;96357.09;5005540;28;20213;-77
2022/04/28 00:36:07;;;;;;;11.33;9.07;;;;;;;6.27;88.66;96352.09;4997136;28;20179;-77
2022/04/28 00:38:33;;;;;;;11.67;10.37;;;;;;;6.24;89.03;96345.41;4995862;28;20228;-78
2022/04/28 00:40:58;;;;;;;11.63;9.30;;;;;;;6.21;88.95;96344.81;4996563;28;20177;-78
2022/04/28 00:43:28;;;;;;;10.63;9.03;;;;;;;6.22;89.25;96351.59;4995680;28;20169;-77
2022/04/28 00:45:54;;;;;;;12.83;9.10;;;;;;;6.17;89.33;96346.72;4996188;28;20168;-77
2022/04/28 00:51:05;;;;;;;10.60;9.30;;;;;;;6.15;89.39;96343.44;4996016;28;20207;-77
2022/04/28 00:53:32;;;;;;;10.93;9.03;;;;;;;6.15;89.61;96340.03;4996213;28;20172;-77
2022/04/28 00:55:58;;;;;;;10.07;9.07;;;;;;;6.14;89.75;96343.53;4996312;28;20172;-77
2022/04/28 00:58:24;;;;;;;10.17;9.03;;;;;;;6.13;89.72;96341.91;4995054;28;20184;-77
2022/04/28 01:00:49;;;;;;;10.17;8.60;;;;;;;6.20;89.73;96341.41;4995992;28;20369;-77
2022/04/28 01:03:14;;;;;;;9.87;8.87;;;;;;;6.19;89.32;96344.09;4995322;28;20173;-79
2022/04/28 01:05:41;;;;;;;8.87;7.97;;;;;;;6.20;89.42;96345.72;5000250;28;20176;-80
2022/04/28 01:08:07;;;;;;;10.20;9.10;;;;;;;6.18;88.99;96342.41;4989978;28;20256;-79
2022/04/28 01:10:32;;;;;;;10.07;9.00;;;;;;;6.22;88.82;96344.69;4989844;28;20209;-80
2022/04/28 01:12:57;;;;;;;9.63;8.63;;;;;;;6.24;88.34;96342.84;4989517;28;20184;-80
2022/04/28 01:15:23;;;;;;;9.90;8.90;;;;;;;6.23;88.29;96340.34;4973575;28;20608;-80
2022/04/28 01:17:48;;;;;;;9.70;8.67;;;;;;;6.40;87.69;96347.81;4989592;28;20224;-79
2022/04/28 01:20:13;;;;;;;8.73;7.83;;;;;;;6.43;87.37;96344.19;4989596;28;20641;-80
2022/04/28 01:22:39;;;;;;;11.70;8.87;;;;;;;6.41;86.86;96344.28;4973821;28;20184;-79
2022/04/28 01:25:07;;;;;;;11.33;8.07;;;;;;;6.51;86.85;96345.31;4991026;28;20188;-78
2022/04/28 01:27:33;;;;;;;9.93;8.73;;;;;;;6.50;86.61;96335.94;4957363;28;20184;-79
2022/04/28 01:29:59;;;;;;;9.10;8.23;;;;;;;6.42;86.42;96343.34;4973106;28;20306;-80
2022/04/28 01:32:25;;;;;;;9.10;8.20;;;;;;;6.37;86.85;96347.19;4973097;28;20228;-80
2022/04/28 01:34:50;;;;;;;8.90;8.00;;;;;;;6.37;86.35;96342.84;4988844;28;20216;-79
2022/04/28 01:37:16;;;;;;;9.53;7.80;;;;;;;6.30;86.64;96340.78;4989432;28;20637;-79
2022/04/28 01:39:41;;;;;;;11.07;8.27;;;;;;;6.25;86.92;96346.22;4988891;28;20189;-80
2022/04/28 01:42:07;;;;;;;8.70;7.80;;;;;;;6.24;87.14;96340.25;4973630;28;20180;-80
2022/04/28 01:44:33;;;;;;;8.83;7.93;;;;;;;6.24;87.43;96342.00;4972861;28;20353;-79
2022/04/28 01:46:59;;;;;;;9.93;8.67;;;;;;;6.21;87.25;96343.03;4989182;28;20201;-80
2022/04/28 01:49:24;;;;;;;9.40;8.33;;;;;;;6.33;87.28;96341.41;4988885;28;20239;-80
2022/04/28 01:57:17;;;;;;;9.17;7.47;;;;;;;6.22;87.08;96342.13;4974470;28;20240;-79
2022/04/28 01:59:43;;;;;;;8.73;7.47;;;;;;;6.21;87.25;96339.63;4988110;28;20201;-80
2022/04/28 02:02:08;;;;;;;10.07;8.00;;;;;;;6.17;87.26;96339.00;4972425;28;20188;-80
2022/04/28 02:04:33;;;;;;;9.37;8.47;;;;;;;6.14;87.47;96335.81;4976891;28;20184;-79
2022/04/28 02:06:59;;;;;;;9.20;8.10;;;;;;;6.13;87.69;96344.47;4992648;28;20618;-80
2022/04/28 02:09:24;;;;;;;8.87;7.97;;;;;;;6.16;87.25;96342.50;4976288;28;20216;-79
2022/04/28 02:11:50;;;;;;;8.40;7.17;;;;;;;6.20;87.12;96343.16;4977102;28;20190;-79
2022/04/28 02:14:15;;;;;;;8.40;7.50;;;;;;;6.24;86.73;96334.28;4960514;28;20216;-79
2022/04/28 02:16:40;;;;;;;8.70;7.90;;;;;;;6.21;86.69;96340.47;4976605;28;20704;-79
2022/04/28 02:19:06;;;;;;;8.53;7.73;;;;;;;6.30;86.37;96339.03;4992675;28;20650;-79
2022/04/28 02:21:31;;;;;;;9.00;7.60;;;;;;;6.25;86.10;96336.75;4991841;28;20195;-79
2022/04/28 02:23:56;;;;;;;13.40;8.73;;;;;;;6.19;86.57;96344.09;4975937;28;20180;-79
2022/04/28 02:26:22;;;;;;;9.13;7.33;;;;;;;6.29;86.28;96339.97;4976159;28;20185;-79
2022/04/28 02:28:47;;;;;;;9.97;7.87;;;;;;;6.29;86.26;96342.53;4991838;28;20255;-80
2022/04/28 02:31:12;;;;;;;8.90;7.97;;;;;;;6.21;86.41;96345.63;4991689;28;20574;-79
2022/04/28 02:33:38;;;;;;;10.13;8.20;;;;;;;6.21;86.51;96344.81;4991750;28;20189;-79
2022/04/28 02:36:04;;;;;;;9.90;8.17;;;;;;;6.12;86.83;96346.22;4975803;28;20184;-78
2022/04/28 02:38:29;;;;;;;10.17;8.37;;;;;;;6.09;86.94;96350.75;4975589;28;20228;-80
2022/04/28 02:40:54;;;;;;;8.93;8.03;;;;;;;6.02;87.32;96349.50;4991871;28;20228;-79
2022/04/28 02:43:20;;;;;;;9.53;7.17;;;;;;;5.89;87.73;96350.25;4991349;28;20183;-78
2022/04/28 02:45:46;;;;;;;9.37;8.37;;;;;;;5.89;87.86;96352.84;4975845;28;20196;-79
2022/04/28 02:48:11;;;;;;;8.87;7.90;;;;;;;5.81;87.96;96351.69;4991827;28;20193;-79
2022/04/28 02:50:37;;;;;;;10.63;7.70;;;;;;;5.81;88.40;96347.34;4976490;28;20213;-80
2022/04/28 02:53:02;;;;;;;11.03;8.40;;;;;;;5.74;88.20;96353.81;4991118;28;20177;-79
2022/04/28 02:55:27;;;;;;;9.77;8.17;;;;;;;5.70;88.67;96349.81;4976578;28;20215;-79
2022/04/28 02:57:53;;;;;;;9.13;7.73;;;;;;;5.63;89.01;96356.25;4991565;28;20203;-80
2022/04/28 03:00:18;;;;;;;10.50;8.60;;;;;;;5.57;88.85;96354.09;4991190;28;20597;-78
2022/04/28 03:02:44;;;;;;;11.13;8.67;;;;;;;5.53;89.30;96348.28;4992899;28;20184;-78
2022/04/28 03:05:09;;;;;;;10.73;8.03;;;;;;;5.50;89.53;96355.41;4973929;28;20203;-79
2022/04/28 03:10:53;;;;;;;9.17;8.10;;;;;;;5.42;89.97;96355.88;4974706;28;20211;-78
2022/04/28 03:13:21;;;;;;;10.60;9.00;;;;;;;5.44;89.97;96361.75;4988019;28;20551;-79
2022/04/28 03:15:47;;;;;;;11.17;8.37;;;;;;;5.40;89.99;96360.31;4973700;28;20239;-79
2022/04/28 03:18:13;;;;;;;10.20;8.47;;;;;;;5.42;89.73;96361.03;4974940;28;20205;-79
2022/04/28 03:20:39;;;;;;;11.40;9.00;;;;;;;5.44;90.08;96354.03;4974797;28;20184;-80
2022/04/28 03:23:04;;;;;;;10.63;9.03;;;;;;;5.48;90.25;96365.81;4990368;28;20328;-79
2022/04/28 03:25:31;;;;;;;11.07;9.00;;;;;;;5.50;90.09;96357.97;4974823;28;20620;-79
2022/04/28 03:27:56;;;;;;;9.67;8.67;;;;;;;5.37;90.10;96351.00;4974694;28;20708;-78
2022/04/28 03:30:22;;;;;;;10.83;9.43;;;;;;;5.29;90.49;96353.22;4975839;28;20220;-79
2022/04/28 03:32:47;;;;;;;10.90;8.80;;;;;;;5.24;91.05;96362.19;4990369;28;20193;-80
2022/04/28 03:35:14;;;;;;;10.07;9.07;;;;;;;5.20;90.95;96363.28;4974701;28;20688;-79
2022/04/28 03:37:39;;;;;;;10.47;9.37;;;;;;;5.18;91.13;96362.56;4990744;28;20188;-79
2022/04/28 03:40:05;;;;;;;10.37;9.00;;;;;;;5.19;91.48;96365.03;4974542;28;20191;-78
2022/04/28 03:42:30;;;;;;;10.37;9.37;;;;;;;5.21;91.62;96363.22;4990158;28;20235;-80
2022/04/28 03:44:56;;;;;;;11.13;9.20;;;;;;;5.22;91.47;96359.72;4990642;28;20192;-79
2022/04/28 03:47:21;;;;;;;11.03;9.87;;;;;;;5.25;91.84;96362.09;4974332;28;20184;-78
2022/04/28 03:49:46;;;;;;;12.00;9.63;;;;;;;5.22;91.59;96362.28;4990645;28;20707;-79
2022/04/28 03:52:12;;;;;;;11.13;9.53;;;;;;;5.13;92.08;96372.31;4990363;28;20271;-79
2022/04/28 03:54:37;;;;;;;12.63;9.53;;;;;;;5.18;92.16;96368.53;4973714;28;20195;-78
2022/04/28 03:57:03;;;;;;;13.30;10.37;;;;;;;5.17;92.22;96364.31;4963685;28;20197;-78
2022/04/28 03:59:28;;;;;;;12.23;10.60;;;;;;;5.20;92.60;96369.25;4989519;28;20578;-78
2022/04/28 04:01:53;;;;;;;13.57;11.13;;;;;;;5.22;92.71;96372.59;4980258;28;20190;-79
2022/04/28 04:04:18;;;;;;;12.33;10.10;;;;;;;5.35;92.42;96378.63;5007263;28;20186;-78
2022/04/28 04:06:44;;;;;;;13.93;10.90;;;;;;;5.33;91.85;96375.31;5008698;28;20188;-79
2022/04/28 04:09:09;;;;;;;13.60;10.47;;;;;;;5.33;92.09;96367.59;4991682;28;20210;-80
2022/04/28 04:11:34;;;;;;;12.70;10.57;;;;;;;5.29;92.06;96376.41;5007961;28;20180;-80
2022/04/28 04:14:00;;;;;;;11.87;10.57;;;;;;;5.39;91.97;96374.13;4992020;28;20258;-79
2022/04/28 04:16:25;;;;;;;13.00;10.07;;;;;;;5.53;91.47;96371.47;4992608;28;20578;-79
2022/04/28 04:18:50;;;;;;;13.23;11.03;;;;;;;5.60;90.92;96377.09;5008457;28;20199;-79
2022/04/28 04:21:16;;;;;;;13.43;10.70;;;;;;;5.65;90.89;96377.59;4975461;28;20179;-79
2022/04/28 04:23:41;;;;;;;15.67;11.30;;;;;;;5.69;90.59;96387.63;4991552;28;20537;-79
2022/04/28 04:26:07;;;;;;;14.40;11.43;;;;;;;5.75;90.46;96383.84;5008284;28;20195;-79
2022/04/28 04:28:33;;;;;;;14.10;11.27;;;;;;;5.76;90.66;96382.09;4991875;28;20283;-80
2022/04/28 04:33:42;;;;;;;13.70;11.23;;;;;;;5.91;90.30;96391.44;5006006;28;20198;-77
2022/04/28 04:36:07;;;;;;;13.33;11.87;;;;;;;6.02;90.29;96389.03;5008206;28;20184;-79
2022/04/28 04:38:32;;;;;;;15.20;11.33;;;;;;;6.08;89.84;96391.19;4991678;28;20203;-80
2022/04/28 04:40:58;;;;;;;14.57;11.47;;;;;;;6.19;89.29;96393.09;5008425;28;20245;-81
2022/04/28 04:43:23;;;;;;;15.17;12.13;;;;;;;6.29;89.14;96398.47;4991345;28;20176;-80
2022/04/28 04:45:48;;;;;;;14.27;11.60;;;;;;;6.34;89.44;96401.56;4991917;28;20175;-81
2022/04/28 04:48:14;;;;;;;15.23;12.63;;;;;;;6.41;89.01;96408.78;4991648;28;20211;-79
2022/04/28 04:50:40;;;;;;;17.97;12.53;;;;;;;6.51;87.86;96409.00;4991276;28;20210;-80
2022/04/28 04:53:05;;;;;;;13.67;11.30;;;;;;;6.64;87.87;96411.63;4991119;28;20175;-79
2022/04/28 04:55:36;;;;;;;14.10;12.40;;;;;;;6.62;88.03;96414.28;4992164;28;20554;-78
2022/04/28 04:58:02;;;;;;;14.67;11.87;;;;;;;6.74;87.80;96421.22;4973554;28;20204;-80
2022/04/28 05:00:27;;;;;;;15.63;12.77;;;;;;;6.77;87.32;96421.00;4958751;28;20180;-77
2022/04/28 05:02:53;;;;;;;16.30;12.67;;;;;;;7.06;86.40;96419.03;5006641;28;20176;-77
2022/04/28 05:05:18;;;;;;;13.07;11.43;;;;;;;7.49;83.73;96420.41;4990845;28;20189;-85
2022/04/28 05:07:43;;;;;;;13.83;12.20;;;;;;;7.81;83.11;96420.72;4982484;28;20187;-82
2022/04/28 05:10:09;;;;;;;14.03;11.73;;;;;;;7.92;82.45;96428.53;4989920;28;20209;-80
2022/04/28 05:12:34;;;;;;;14.87;12.33;;;;;;;7.85;81.64;96424.72;4985466;28;20208;-80
2022/04/28 05:15:00;;;;;;;13.77;11.70;;;;;;;8.03;82.02;96441.50;4953710;29;20529;-80
2022/04/28 05:17:25;;;;;;;15.03;11.67;;;;;;;8.04;81.81;96435.44;4953822;29;20177;-80
2022/04/28 05:19:50;;;;;;;14.37;11.83;;;;;;;8.09;82.67;96443.66;4985634;28;20200;-80
2022/04/28 05:22:15;;;;;;;14.33;11.43;;;;;;;8.14;82.70;96445.94;4951613;29;20189;-81
2022/04/28 05:24:41;;;;;;;13.37;11.60;;;;;;;8.24;81.86;96447.75;4953628;29;20208;-80
2022/04/28 05:27:07;;;;;;;13.90;11.67;;;;;;;8.40;81.59;96454.44;4969661;28;20292;-80
2022/04/28 05:29:32;;;;;;;14.93;11.83;;;;;;;8.43;81.09;96451.63;4969212;28;20292;-80
2022/04/28 05:31:57;;;;;;;13.03;11.43;;;;;;;8.61;80.13;96454.63;4936950;29;20529;-79
2022/04/28 05:34:23;;;;;;;13.57;10.67;;;;;;;8.62;79.41;96453.66;4969477;28;20271;-80
2022/04/28 05:36:50;;;;;;;14.40;11.17;;;;;;;8.60;79.22;96461.56;4969530;28;20224;-79
2022/04/28 05:39:15;;;;;;;12.90;11.00;;;;;;;8.64;78.62;96459.56;4973151;28;20343;-80
2022/04/28 05:41:40;;;;;;;13.03;10.13;;;;;;;8.70;78.61;96464.28;4957009;28;20214;-80
2022/04/28 05:46:53;;;;;;;11.73;9.97;;;;;;;8.94;78.68;96469.41;4958546;29;20188;-80
2022/04/28 05:49:19;;;;;;;13.03;9.90;;;;;;;8.98;78.09;96468.22;4973597;28;20714;-80
2022/04/28 05:51:44;;;;;;;11.80;10.43;;;;;;;9.08;77.71;96472.59;4989236;28;20181;-80
2022/04/28 05:54:10;;;;;;;11.20;9.90;;;;;;;9.20;77.26;96472.63;4973125;28;20543;-79
2022/04/28 05:56:35;;;;;;;10.70;9.60;;;;;;;9.28;77.17;96476.28;4956897;29;20173;-79
2022/04/28 05:59:01;;;;;;;10.20;9.03;;;;;;;9.40;76.44;96478.88;4956858;29;20220;-79
2022/04/28 06:01:27;;;;;;;10.17;9.07;;;;;;;9.41;75.86;96480.53;4956568;28;20188;-80
2022/04/28 06:03:52;;;;;;;9.60;8.57;;;;;;;9.54;75.51;96481.22;4957155;28;20178;-80
2022/04/28 06:06:17;;;;;;;9.27;8.03;;;;;;;9.62;75.11;96486.63;4958374;28;20527;-81
2022/04/28 06:08:43;;;;;;;8.63;7.70;;;;;;;9.70;73.93;96491.25;4956836;28;20257;-80
2022/04/28 06:11:08;;;;;;;11.33;8.50;;;;;;;9.78;73.79;96492.28;4956488;28;20221;-79
2022/04/28 06:13:33;;;;;;;8.47;7.23;;;;;;;9.89;73.65;96494.91;4956548;28;20207;-81
2022/04/28 06:15:58;;;;;;;8.00;7.20;;;;;;;10.06;72.19;96492.72;4957233;29;20188;-80
2022/04/28 06:18:24;;;;;;;8.60;7.77;;;;;;;10.46;69.31;96501.63;4957414;28;20221;-80
2022/04/28 06:20:49;;;;;;;9.47;7.53;;;;;;;10.53;69.70;96503.72;4989691;28;20189;-79
2022/04/28 06:23:15;;;;;;;8.40;6.90;;;;;;;10.56;69.81;96501.69;4956083;29;20553;-80
2022/04/28 06:25:40;;;;;;;7.63;6.83;;;;;;;10.69;68.63;96506.69;4957057;28;20669;-80
2022/04/28 06:28:06;;;;;;;9.17;7.47;;;;;;;10.75;68.63;96508.81;4989236;28;20685;-80
2022/04/28 06:30:31;;;;;;;8.67;7.40;;;;;;;11.04;67.52;96507.25;4958676;28;20327;-80
2022/04/28 06:32:57;;;;;;;7.60;6.80;;;;;;;12.80;61.04;96509.47;4956808;29;20209;-80
2022/04/28 06:35:22;;;;;;;7.70;5.87;;;;;;;15.16;52.52;96514.97;4989464;28;20669;-80
2022/04/28 06:37:47;;;;;;;7.73;6.93;;;;;;;17.32;46.56;96510.00;4957783;28;20215;-80
2022/04/28 06:40:13;;;;;;;7.27;6.40;;;;;;;17.67;44.00;96510.56;4957073;28;20268;-79
2022/04/28 06:42:44;;;;;;;8.27;6.33;;;;;;;18.53;42.03;96515.00;4956833;28;20219;-79
2022/04/28 06:45:10;;;;;;;5.80;5.30;;;;;;;19.16;41.29;96524.47;4957552;29;20272;-80
2022/04/28 06:47:35;;;;;;;7.20;5.65;;;;;;;18.86;40.88;96526.19;4990100;28;20185;-80
2022/04/28 06:50:01;;;;;;;6.45;5.85;;;;;;;19.64;39.37;96522.44;4957171;28;20193;-79
2022/04/28 06:52:26;;;;;;;6.53;5.70;;;;;;;19.05;39.88;96530.16;4956424;28;20188;-81
2022/04/28 06:54:51;;;;;;;5.60;5.10;;;;;;;19.83;38.04;96527.16;4973037;28;20628;-80
2022/04/28 06:57:17;;;;;;;5.97;5.28;;;;;;;20.80;36.46;96524.31;4972956;28;20173;-80
2022/04/28 06:59:42;;;;;;;6.55;5.43;;;;;;;20.27;37.16;96523.69;4957337;29;20193;-81
2022/04/28 07:02:09;;;;;;;5.65;5.15;;;;;;;19.95;38.67;96538.06;4955847;28;20657;-80
2022/04/28 07:04:34;;;;;;;5.85;5.30;;;;;;;18.98;39.43;96530.03;4956823;29;20235;-80
2022/04/28 07:07:00;;;;;;;6.78;5.57;;;;;;;19.37;39.07;96524.63;4989205;28;20647;-80
2022/04/28 07:09:25;;;;;;;6.03;5.43;;;;;;;19.12;39.47;96531.09;4957382;28;20587;-80
2022/04/28 07:11:50;;;;;;;5.07;4.65;;;;;;;19.11;39.11;96540.81;4955865;29;20268;-81
2022/04/28 07:14:16;;;;;;;5.70;5.13;;;;;;;17.91;40.60;96538.63;4956527;29;20224;-81
2022/04/28 07:16:42;;;;;;;6.82;5.13;;;;;;;17.67;42.54;96537.69;4958002;28;20684;-81
2022/04/28 07:19:07;;;;;;;5.88;5.30;;;;;;;16.68;44.11;96536.03;4956403;29;20205;-80
2022/04/28 07:21:33;;;;;;;8.57;5.70;;;;;;;15.75;46.54;96542.22;4955154;29;20664;-80
2022/04/28 07:23:58;;;;;;;6.18;5.40;;;;;;;14.65;49.38;96537.41;4957889;28;20178;-80
2022/04/28 07:26:24;;;;;;;5.60;4.97;;;;;;;14.18;52.18;96543.59;4956292;29;20185;-80
2022/04/28 07:28:49;;;;;;;6.67;5.00;;;;;;;13.60;53.23;96543.00;4956345;28;20260;-81
2022/04/28 07:31:14;;;;;;;5.60;5.10;;;;;;;13.79;53.55;96550.78;4955936;29;20613;-81
2022/04/28 07:33:40;;;;;;;6.50;5.73;;;;;;;13.51;54.80;96551.66;4988224;28;20193;-80
2022/04/28 07:36:05;;;;;;;6.07;5.47;;;;;;;13.45;54.37;96547.03;4956589;29;20532;-80
2022/04/28 07:38:30;;;;;;;7.27;4.90;;;;;;;13.47;55.13;96545.91;4955934;29;20690;-80
2022/04/28 07:40:57;;;;;;;8.10;5.17;;;;;;;13.62;56.48;96548.91;4956271;28;20600;-79
2022/04/28 07:43:23;;;;;;;8.23;5.30;;;;;;;13.63;54.87;96547.94;4971699;28;20177;-79
2022/04/28 07:45:49;;;;;;;5.60;5.10;;;;;;;13.28;55.34;96545.97;4958155;28;20182;-78
2022/04/28 07:48:14;;;;;;;7.30;5.70;;;;;;;13.34;53.94;96553.25;4960615;28;20212;-79
2022/04/28 07:50:40;;;;;;;6.07;5.57;;;;;;;13.32;54.87;96552.53;4958849;28;20219;-79
2022/04/28 07:53:05;;;;;;;6.67;6.03;;;;;;;13.17;55.03;96553.91;4956720;28;20324;-79
2022/04/28 07:55:30;;;;;;;5.83;5.03;;;;;;;13.39;57.05;96550.19;4972902;28;20533;-79
2022/04/28 07:57:55;;;;;;;7.53;5.33;;;;;;;13.50;55.93;96555.25;4955121;29;20229;-80
2022/04/28 08:00:21;;;;;;;5.80;5.23;;;;;;;13.42;55.75;96547.28;4955980;28;20189;-80
2022/04/28 08:02:46;;;;;;;6.80;4.57;;;;;;;13.68;54.66;96558.75;4955929;29;20672;-79
2022/04/28 08:05:11;;;;;;;5.60;5.00;;;;;;;13.19;55.73;96567.63;4954935;28;20188;-79
2022/04/28 08:07:37;;;;;;;6.37;5.40;;;;;;;13.32;53.67;96562.97;4956630;28;20184;-79
2022/04/28 08:10:04;;;;;;;4.87;4.37;;;;;;;13.42;53.40;96569.00;4955079;28;20299;-79
2022/04/28 08:12:29;;;;;;;5.17;4.17;;;;;;;13.53;53.94;96573.25;4970551;28;20195;-78
2022/04/28 08:14:54;;;;;;;5.90;4.33;;;;;;;13.68;51.95;96574.44;4955826;28;20553;-78
2022/04/28 08:17:20;;;;;;;5.77;4.40;;;;;;;13.48;49.78;96573.66;4954893;29;20192;-79
2022/04/28 08:19:45;;;;;;;6.60;4.37;;;;;;;13.76;51.34;96576.34;4954777;28;20288;-79
2022/04/28 08:22:10;;;;;;;6.30;4.90;;;;;;;13.62;47.13;96577.63;4953146;28;20505;-79
2022/04/28 08:24:36;;;;;;;5.37;4.90;;;;;;;13.38;47.92;96569.44;4954228;29;20200;-79
2022/04/28 08:27:01;;;;;;;5.30;4.53;;;;;;;13.71;49.06;96576.78;4986670;28;20181;-79
2022/04/28 08:29:27;;;;;;;6.50;4.83;;;;;;;13.70;49.82;96569.09;4954454;28;20292;-78
2022/04/28 08:31:52;;;;;;;4.73;4.27;;;;;;;13.99;49.60;96575.03;4953623;29;20189;-79
2022/04/28 08:34:18;;;;;;;4.73;4.20;;;;;;;14.20;49.46;96572.16;4954590;28;20192;-81
2022/04/28 08:36:44;;;;;;;4.53;4.00;;;;;;;14.14;48.23;96570.97;4954771;29;20216;-79
2022/04/28 08:39:10;;;;;;;4.50;4.10;;;;;;;14.28;48.05;96574.88;4986529;28;20205;-81
2022/04/28 08:41:37;;;;;;;6.33;4.97;;;;;;;14.37;49.00;96574.00;4985933;28;20184;-80
2022/04/28 08:44:04;;;;;;;5.20;4.70;;;;;;;14.22;46.45;96580.69;4954430;28;20185;-80
2022/04/28 08:49:14;;;;;;;6.77;4.40;;;;;;;14.10;46.92;96580.06;4981497;28;20401;-80
2022/04/28 08:51:40;;;;;;;9.20;4.33;;;;;;;14.32;47.40;96578.88;4953014;29;20304;-80
2022/04/28 08:54:05;;;;;;;6.67;5.13;;;;;;;14.33;46.09;96590.13;4970129;28;20665;-79
2022/04/28 08:56:31;;;;;;;7.73;5.20;;;;;;;14.27;46.67;96585.50;4953784;28;20522;-80
2022/04/28 08:58:56;;;;;;;8.80;5.30;;;;;;;14.36;44.40;96587.22;4953447;29;20201;-81
2022/04/28 09:01:27;;;;;;;6.40;4.50;;;;;;;14.21;44.68;96592.09;4985568;28;20252;-80
2022/04/28 09:03:53;;;;;;;5.17;4.27;;;;;;;14.18;45.83;96598.44;4969312;28;20276;-81
2022/04/28 09:06:22;;;;;;;6.07;4.43;;;;;;;14.38;47.07;96595.75;4953965;29;20196;-81
2022/04/28 09:08:49;;;;;;;5.10;4.30;;;;;;;14.65;45.04;96594.94;4986042;28;20237;-81
2022/04/28 09:11:18;;;;;;;3.87;3.20;;;;;;;14.54;44.20;96588.13;4985503;28;20197;-81
2022/04/28 09:16:28;;;;;;;5.10;4.27;;;;;;;14.87;44.65;96589.28;4954041;29;20188;-81
2022/04/28 09:18:54;;;;;;;4.83;4.33;;;;;;;14.88;43.54;96598.78;4985902;28;20277;-80
2022/04/28 09:21:19;;;;;;;5.13;4.50;;;;;;;14.51;44.16;96585.81;4952258;29;20181;-79
2022/04/28 09:23:49;;;;;;;6.23;4.13;;;;;;;14.80;44.72;96601.31;4953508;29;20185;-80
2022/04/28 09:26:14;;;;;;;5.60;4.50;;;;;;;14.37;44.00;96592.31;4953459;29;20241;-79
2022/04/28 09:28:40;;;;;;;6.00;4.20;;;;;;;14.03;43.27;96589.44;4953512;28;20213;-80
2022/04/28 09:31:09;;;;;;;5.23;4.13;;;;;;;13.96;42.36;96587.53;4953346;29;20705;-80
2022/04/28 09:33:36;;;;;;;4.27;3.87;;;;;;;14.13;43.17;96585.00;4969293;28;20185;-80
2022/04/28 09:36:02;;;;;;;6.00;4.33;;;;;;;14.62;43.03;96587.38;4953470;29;20196;-81
2022/04/28 09:38:29;;;;;;;5.40;3.90;;;;;;;14.92;43.22;96586.22;4954832;28;20200;-80
2022/04/28 09:43:38;;;;;;;5.57;4.40;;;;;;;15.12;40.12;96586.91;4953397;29;20281;-80
2022/04/28 09:46:04;;;;;;;4.40;4.00;;;;;;;15.27;42.93;96585.38;4952949;29;20226;-81
2022/04/28 09:48:33;;;;;;;4.63;3.90;;;;;;;15.62;41.83;96594.19;4985256;28;20681;-81
2022/04/28 09:51:04;;;;;;;4.20;3.60;;;;;;;15.56;41.20;96596.41;4968918;28;20217;-80
2022/04/28 09:53:34;;;;;;;4.13;3.67;;;;;;;15.50;39.54;96591.78;4984736;28;20558;-81
2022/04/28 09:56:02;;;;;;;3.30;3.00;;;;;;;15.22;37.27;96590.25;4985234;28;20182;-81
2022/04/28 09:58:27;;;;;;;5.03;3.80;;;;;;;15.20;40.18;96587.78;4968945;28;20213;-80
2022/04/28 10:01:00;;;;;;;4.13;3.10;;;;;;;15.49;39.14;96589.31;4969074;28;20231;-81
2022/04/28 10:03:27;;;;;;;4.97;3.60;;;;;;;15.15;38.55;96581.34;4952840;29;20196;-80
2022/04/28 10:05:53;;;;;;;3.30;3.00;;;;;;;15.52;37.90;96589.81;4985549;28;20696;-80
2022/04/28 10:08:20;;;;;;;5.73;2.57;;;;;;;15.71;35.63;96588.00;4955463;28;20197;-80
2022/04/28 10:10:46;;;;;;;3.30;2.83;;;;;;;16.03;38.19;96590.00;4959862;29;20647;-81
2022/04/28 10:13:12;;;;;;;5.13;3.20;;;;;;;15.80;35.96;96589.72;4960647;28;20189;-80
2022/04/28 10:15:37;;;;;;;2.60;2.37;;;;;;;15.97;35.63;96583.59;4959441;29;20181;-81
2022/04/28 10:18:10;;;;;;;4.83;2.73;;;;;;;16.15;36.97;96584.34;4961064;28;20205;-80
2022/04/28 10:20:42;;;;;;;3.70;3.20;;;;;;;16.00;35.85;96580.69;4962451;29;20218;-80
2022/04/28 10:23:11;;;;;;;3.23;2.93;;;;;;;15.76;35.03;96576.13;4961248;28;20552;-80
2022/04/28 10:34:13;;;;;;;5.10;3.70;;;;;;;15.52;37.72;96579.34;4994271;28;20255;-81
2022/04/28 10:36:56;;;;;;;4.67;3.77;;;;;;;15.64;38.54;96581.78;4962280;29;20240;-81
2022/04/28 10:39:42;;;;;;;4.07;3.67;;;;;;;15.58;37.86;96578.75;4992902;28;20234;-81
2022/04/28 10:42:20;;;;;;;3.97;3.60;;;;;;;15.37;38.42;96585.28;4961947;29;20189;-81
2022/04/28 10:44:57;;;;;;;5.47;4.03;;;;;;;15.41;38.16;96582.22;4957846;29;20746;-81
2022/04/28 10:47:42;;;;;;;4.23;3.83;;;;;;;15.45;38.66;96583.56;4988273;28;20181;-80
2022/04/28 10:50:22;;;;;;;7.50;4.87;;;;;;;15.59;39.36;96574.34;4988514;28;20304;-81
2022/04/28 10:52:55;;;;;;;5.57;3.93;;;;;;;15.58;38.81;96588.41;4972013;28;20177;-81
2022/04/28 10:55:21;;;;;;;5.00;4.50;;;;;;;15.37;38.60;96578.28;4988800;28;20185;-80
2022/04/28 10:57:47;;;;;;;7.23;5.47;;;;;;;15.66;39.56;96590.28;4957161;28;20281;-81
2022/04/28 11:00:14;;;;;;;5.17;4.67;;;;;;;16.08;39.46;96588.59;4956217;29;20209;-79
2022/04/28 11:02:41;;;;;;;5.77;4.43;;;;;;;16.38;41.16;96579.38;4956003;28;20185;-80
2022/04/28 11:05:26;;;;;;;6.20;3.77;;;;;;;16.25;36.71;96596.50;4972002;28;20181;-80
2022/04/28 11:07:53;;;;;;;14.63;6.90;;;;;;;16.13;38.52;96594.16;4972321;28;20239;-80
2022/04/28 11:10:18;;;;;;;5.60;4.93;;;;;;;16.21;39.68;96590.75;4956201;28;20209;-80
2022/04/28 11:12:44;;;;;;;5.00;3.73;;;;;;;16.32;37.77;96584.41;4988010;28;20233;-79
2022/04/28 11:15:14;;;;;;;5.70;3.97;;;;;;;16.09;38.86;96578.91;4956286;29;20595;-79
2022/04/28 11:17:44;;;;;;;4.57;3.53;;;;;;;16.00;40.16;96599.00;4988283;28;20185;-79
2022/04/28 11:20:14;;;;;;;4.50;3.90;;;;;;;16.30;39.86;96591.63;4956297;29;20184;-80
2022/04/28 11:22:44;;;;;;;7.33;4.13;;;;;;;16.21;38.44;96596.00;4970632;28;20638;-80
2022/04/28 11:25:10;;;;;;;4.38;3.97;;;;;;;16.21;37.73;96585.50;4955984;29;20177;-80
2022/04/28 11:27:35;;;;;;;5.68;3.92;;;;;;;16.10;36.24;96597.09;4956121;29;20608;-80
2022/04/28 11:30:01;;;;;;;4.10;3.70;;;;;;;16.39;36.94;96588.03;4956588;29;20239;-80
2022/04/28 11:32:27;;;;;;;12.47;5.60;;;;;;;16.76;35.77;96592.13;4956243;28;20252;-80
2022/04/28 11:34:52;;;;;;;4.50;3.67;;;;;;;16.89;35.61;96593.31;4955404;28;20650;-80
2022/04/28 11:37:20;;;;;;;7.13;3.57;;;;;;;16.88;37.46;96593.47;4956123;28;20188;-80
2022/04/28 11:39:46;;;;;;;4.53;3.47;;;;;;;16.68;37.33;96582.38;4956543;29;20219;-80
2022/04/28 11:42:13;;;;;;;5.03;4.13;;;;;;;16.85;37.05;96580.66;4955677;29;20185;-80
2022/04/28 11:44:51;;;;;;;3.80;3.42;;;;;;;16.91;37.60;96586.09;4956711;28;20185;-80
2022/04/28 11:47:20;;;;;;;4.30;3.00;;;;;;;16.87;35.76;96583.94;4956559;29;20654;-79
2022/04/28 11:49:49;;;;;;;3.80;3.22;;;;;;;16.26;35.13;96578.00;4955551;29;20216;-80
2022/04/28 11:52:23;;;;;;;3.40;2.90;;;;;;;16.50;35.85;96584.31;4987345;28;20264;-80
2022/04/28 11:54:57;;;;;;;4.90;3.55;;;;;;;16.53;35.37;96581.38;4988424;28;20180;-80
2022/04/28 11:57:23;;;;;;;4.78;3.30;;;;;;;16.96;35.56;96583.81;4972083;28;20306;-80
2022/04/28 11:59:48;;;;;;;3.77;3.13;;;;;;;16.96;35.22;96575.94;4955618;29;20264;-80
2022/04/28 12:02:28;;;;;;;4.25;3.53;;;;;;;17.13;33.74;96581.19;4956416;29;20191;-80
2022/04/28 12:04:54;;;;;;;4.35;3.47;;;;;;;17.43;34.92;96583.16;4971092;28;20185;-80